createdAt,value
2022-12-16T00:01:14.394Z,96682.16
2022-12-16T00:03:41.783Z,96684.59
2022-12-16T00:06:09.259Z,96686.25
2022-12-16T00:08:39.769Z,96689.94
2022-12-16T00:11:07.638Z,96671.75
2022-12-16T00:13:36.703Z,96679.09
2022-12-16T00:16:14.841Z,96694.47
2022-12-16T00:18:41.520Z,96692.31
2022-12-16T00:21:09.330Z,96676.91
2022-12-16T00:23:36.790Z,96697.53
2022-12-16T00:26:03.417Z,96697.34
2022-12-16T00:28:33.698Z,96682.53
2022-12-16T00:31:03.464Z,96699.50
2022-12-16T00:33:35.447Z,96706.50
2022-12-16T00:36:02.325Z,96695.38
2022-12-16T00:38:31.093Z,96703.41
2022-12-16T00:40:57.580Z,96717.28
2022-12-16T00:43:24.283Z,96712.47
2022-12-16T00:45:52.008Z,96714.56
2022-12-16T00:48:19.514Z,96721.16
2022-12-16T00:50:51.919Z,96731.28
2022-12-16T00:53:19.129Z,96717.47
2022-12-16T00:55:46.567Z,96704.53
2022-12-16T00:58:13.595Z,96705.06
2022-12-16T01:00:40.825Z,96730.47
2022-12-16T01:03:07.578Z,96721.56
2022-12-16T01:05:35.486Z,96727.56
2022-12-16T01:08:03.282Z,96727.84
2022-12-16T01:10:33.540Z,96739.69
2022-12-16T01:13:03.043Z,96732.97
2022-12-16T01:15:33.324Z,96735.34
2022-12-16T01:18:03.077Z,96735.94
2022-12-16T01:20:32.884Z,96765.13
2022-12-16T01:23:02.653Z,96759.25
2022-12-16T01:25:33.458Z,96759.97
2022-12-16T01:28:02.998Z,96766.84
2022-12-16T01:30:32.478Z,96761.78
2022-12-16T01:33:01.168Z,96772.03
2022-12-16T01:35:54.699Z,96777.16
2022-12-16T01:38:14.181Z,96790.47
2022-12-16T01:40:40.702Z,96788.69
2022-12-16T01:43:14.280Z,96798.34
2022-12-16T01:45:40.996Z,96799.31
2022-12-16T01:48:25.265Z,96783.53
2022-12-16T01:51:02.760Z,96814.28
2022-12-16T01:53:34.317Z,96820.03
2022-12-16T01:56:03.112Z,96805.88
2022-12-16T01:58:36.999Z,96819.59
2022-12-16T02:01:03.868Z,96824.03
2022-12-16T02:03:36.759Z,96833.09
2022-12-16T02:06:06.229Z,96836.56
2022-12-16T02:08:32.966Z,96835.56
2022-12-16T02:11:02.170Z,96839.28
2022-12-16T02:13:35.735Z,96841.06
2022-12-16T02:16:23.360Z,96852.06
2022-12-16T02:19:08.757Z,96849.34
2022-12-16T02:21:56.516Z,96855.09
2022-12-16T02:25:03.677Z,96856.44
2022-12-16T02:28:11.785Z,96855.50
2022-12-16T02:30:57.317Z,96846.03
2022-12-16T02:33:53.490Z,96863.50
2022-12-16T02:36:30.799Z,96852.34
2022-12-16T02:39:10.234Z,96864.84
2022-12-16T02:41:47.292Z,96862.13
2022-12-16T02:44:17.140Z,96862.91
2022-12-16T02:46:55.643Z,96869.53
2022-12-16T02:49:22.181Z,96865.53
2022-12-16T02:51:49.304Z,96864.03
2022-12-16T02:54:17.598Z,96871.59
2022-12-16T02:57:02.201Z,96881.75
2022-12-16T02:59:43.281Z,96889.97
2022-12-16T03:02:21.284Z,96885.03
2022-12-16T03:05:06.940Z,96885.31
2022-12-16T03:07:36.640Z,96879.00
2022-12-16T03:10:06.921Z,96889.72
2022-12-16T03:12:34.238Z,96891.63
2022-12-16T03:15:03.474Z,96881.63
2022-12-16T03:17:32.470Z,96876.13
2022-12-16T03:20:16.627Z,96900.00
2022-12-16T03:22:46.330Z,96901.94
2022-12-16T03:25:13.732Z,96888.31
2022-12-16T03:27:50.671Z,96900.97
2022-12-16T03:30:25.383Z,96912.34
2022-12-16T03:32:55.430Z,96892.81
2022-12-16T03:35:45.475Z,96913.84
2022-12-16T03:38:14.352Z,96904.75
2022-12-16T03:40:43.308Z,96914.13
2022-12-16T03:43:16.156Z,96898.56
2022-12-16T03:45:45.987Z,96918.50
2022-12-16T03:48:14.078Z,96901.03
2022-12-16T03:50:40.732Z,96914.38
2022-12-16T03:53:07.703Z,96920.28
2022-12-16T03:55:35.552Z,96929.19
2022-12-16T03:58:02.122Z,96918.91
2022-12-16T04:00:30.732Z,96920.16
2022-12-16T04:02:57.414Z,96906.56
2022-12-16T04:05:24.193Z,96927.03
2022-12-16T04:07:50.990Z,96928.25
2022-12-16T04:10:37.546Z,96920.16
2022-12-16T04:13:22.663Z,96918.59
2022-12-16T04:16:07.662Z,96939.09
2022-12-16T04:18:53.578Z,96932.09
2022-12-16T04:21:38.919Z,96940.75
2022-12-16T04:24:21.057Z,96953.34
2022-12-16T04:27:11.929Z,96947.00
2022-12-16T04:30:01.298Z,96957.69
2022-12-16T04:32:48.856Z,96954.81
2022-12-16T04:35:33.940Z,96959.19
2022-12-16T04:38:22.507Z,96971.28
2022-12-16T04:41:07.484Z,96972.22
2022-12-16T04:43:52.818Z,96973.97
2022-12-16T04:46:38.285Z,96981.63
2022-12-16T04:49:23.733Z,96976.56
2022-12-16T04:52:13.070Z,96980.28
2022-12-16T04:55:05.722Z,96971.63
2022-12-16T04:57:50.534Z,96972.31
2022-12-16T05:00:36.001Z,96984.16
2022-12-16T05:03:20.934Z,96994.28
2022-12-16T05:06:06.133Z,96994.19
2022-12-16T05:08:51.043Z,96987.22
2022-12-16T05:11:35.899Z,96998.72
2022-12-16T05:14:21.239Z,97004.94
2022-12-16T05:17:06.138Z,97011.78
2022-12-16T05:19:51.594Z,97002.41
2022-12-16T05:22:37.089Z,97001.47
2022-12-16T05:25:22.600Z,97015.34
2022-12-16T05:28:12.096Z,97020.94
2022-12-16T05:30:57.447Z,97024.09
2022-12-16T05:33:42.687Z,97030.25
2022-12-16T05:36:31.175Z,97027.31
2022-12-16T05:39:16.508Z,97028.19
2022-12-16T05:42:02.109Z,97045.91
2022-12-16T05:44:47.414Z,97049.25
2022-12-16T05:47:32.792Z,97051.13
2022-12-16T05:50:22.056Z,97062.69
2022-12-16T05:53:08.702Z,97077.59
2022-12-16T05:55:54.170Z,97069.88
2022-12-16T05:58:39.607Z,97077.84
2022-12-16T06:01:25.353Z,97085.84
2022-12-16T06:04:15.692Z,97089.28
2022-12-16T06:07:02.934Z,97076.81
2022-12-16T06:09:54.665Z,97085.47
2022-12-16T06:12:41.604Z,97085.66
2022-12-16T06:15:26.895Z,97097.63
2022-12-16T06:18:12.188Z,97108.91
2022-12-16T06:20:57.861Z,97101.78
2022-12-16T06:23:43.007Z,97099.19
2022-12-16T06:26:32.602Z,97103.44
2022-12-16T06:29:17.573Z,97106.16
2022-12-16T06:32:02.402Z,97104.03
2022-12-16T06:34:47.225Z,97114.66
2022-12-16T06:37:32.025Z,97108.28
2022-12-16T06:40:16.853Z,97134.22
2022-12-16T06:43:01.942Z,97123.16
2022-12-16T06:45:48.035Z,97130.66
2022-12-16T06:48:33.119Z,97140.97
2022-12-16T06:51:22.396Z,97136.72
2022-12-16T06:54:07.646Z,97141.66
2022-12-16T06:56:52.703Z,97141.41
2022-12-16T06:59:37.941Z,97147.13
2022-12-16T07:02:22.952Z,97157.66
2022-12-16T07:05:07.809Z,97161.34
2022-12-16T07:07:52.862Z,97165.53
2022-12-16T07:10:38.002Z,97171.84
2022-12-16T07:13:23.208Z,97179.22
2022-12-16T07:16:08.466Z,97186.50
2022-12-16T07:18:53.640Z,97182.78
2022-12-16T07:21:38.726Z,97191.78
2022-12-16T07:24:23.858Z,97193.47
2022-12-16T07:27:08.956Z,97209.22
2022-12-16T07:29:54.101Z,97210.28
2022-12-16T07:32:39.203Z,97215.91
2022-12-16T07:35:24.245Z,97216.91
2022-12-16T07:38:09.420Z,97221.63
2022-12-16T07:40:54.464Z,97214.47
2022-12-16T07:43:40.123Z,97232.72
2022-12-16T07:46:25.170Z,97225.19
2022-12-16T07:49:10.198Z,97239.09
2022-12-16T07:51:55.331Z,97244.38
2022-12-16T07:54:40.973Z,97232.91
2022-12-16T07:57:26.105Z,97249.25
2022-12-16T08:00:10.961Z,97248.09
2022-12-16T08:02:55.949Z,97251.44
2022-12-16T08:05:41.205Z,97264.94
2022-12-16T08:08:26.041Z,97266.47
2022-12-16T08:11:11.121Z,97270.75
2022-12-16T08:14:02.255Z,97280.88
2022-12-16T08:16:47.524Z,97281.88
2022-12-16T08:19:32.328Z,97287.56
2022-12-16T08:22:17.399Z,97287.03
2022-12-16T08:25:02.255Z,97295.56
2022-12-16T08:27:46.918Z,97302.09
2022-12-16T08:30:32.277Z,97303.53
2022-12-16T08:33:19.599Z,97299.56
2022-12-16T08:36:06.101Z,97304.81
2022-12-16T08:38:51.786Z,97323.53
2022-12-16T08:41:38.094Z,97321.97
2022-12-16T08:44:23.800Z,97317.50
2022-12-16T08:47:08.897Z,97321.53
2022-12-16T08:49:57.674Z,97324.38
2022-12-16T08:52:46.884Z,97328.19
2022-12-16T08:55:31.768Z,97332.75
2022-12-16T08:58:16.537Z,97329.34
2022-12-16T09:01:06.629Z,97330.75
2022-12-16T09:03:52.495Z,97344.25
2022-12-16T09:06:40.754Z,97335.25
2022-12-16T09:09:26.898Z,97355.16
2022-12-16T09:12:12.318Z,97363.94
2022-12-16T09:14:57.421Z,97351.94
2022-12-16T09:17:42.674Z,97369.09
2022-12-16T09:20:28.362Z,97363.66
2022-12-16T09:23:13.841Z,97371.34
2022-12-16T09:26:01.194Z,97362.47
2022-12-16T09:28:46.169Z,97374.13
2022-12-16T09:31:31.495Z,97368.91
2022-12-16T09:34:16.758Z,97381.38
2022-12-16T09:37:02.191Z,97370.38
2022-12-16T09:39:47.292Z,97388.53
2022-12-16T09:43:10.119Z,97394.63
2022-12-16T09:46:10.396Z,97391.66
2022-12-16T09:49:56.287Z,97401.03
2022-12-16T09:52:42.618Z,97399.94
2022-12-16T09:55:43.334Z,97401.41
2022-12-16T09:58:31.277Z,97401.50
2022-12-16T10:01:17.211Z,97408.91
2022-12-16T10:04:02.808Z,97400.69
2022-12-16T10:07:03.131Z,97410.56
2022-12-16T10:10:05.868Z,97396.28
2022-12-16T10:13:11.540Z,97407.34
2022-12-16T10:16:15.545Z,97409.84
2022-12-16T10:19:17.576Z,97410.22
2022-12-16T10:22:22.611Z,97400.88
2022-12-16T10:25:39.470Z,97400.88
2022-12-16T10:28:36.259Z,97409.22
2022-12-16T10:31:33.146Z,97406.09
2022-12-16T10:34:30.935Z,97405.13
2022-12-16T10:37:20.656Z,97404.88
2022-12-16T10:40:14.959Z,97410.59
2022-12-16T10:43:30.871Z,97414.63
2022-12-16T10:46:17.252Z,97410.75
2022-12-16T10:49:02.931Z,97417.19
2022-12-16T10:51:50.774Z,97415.88
2022-12-16T10:54:38.934Z,97416.78
2022-12-16T10:57:52.441Z,97425.84
2022-12-16T11:00:56.347Z,97423.50
2022-12-16T11:03:47.422Z,97417.25
2022-12-16T11:06:46.223Z,97415.22
2022-12-16T11:09:40.429Z,97412.22
2022-12-16T11:12:40.877Z,97413.53
2022-12-16T11:15:50.057Z,97415.41
2022-12-16T11:18:40.264Z,97411.50
2022-12-16T11:21:38.645Z,97416.91
2022-12-16T11:24:50.087Z,97418.53
2022-12-16T11:27:42.719Z,97420.03
2022-12-16T11:30:33.765Z,97430.94
2022-12-16T11:33:33.920Z,97416.13
2022-12-16T11:36:41.773Z,97426.03
2022-12-16T11:39:34.448Z,97425.94
2022-12-16T11:42:21.131Z,97422.28
2022-12-16T11:45:16.053Z,97434.88
2022-12-16T11:48:12.467Z,97440.78
2022-12-16T11:51:04.348Z,97438.13
2022-12-16T11:54:03.495Z,97430.09
2022-12-16T11:56:55.661Z,97429.13
2022-12-16T12:00:04.886Z,97435.97
2022-12-16T12:02:56.029Z,97430.53
2022-12-16T12:05:50.776Z,97428.84
2022-12-16T12:08:47.932Z,97440.00
2022-12-16T12:11:46.119Z,97442.00
2022-12-16T12:14:34.086Z,97431.50
2022-12-16T12:17:37.383Z,97433.34
2022-12-16T12:20:58.017Z,97427.31
2022-12-16T12:24:02.355Z,97430.06
2022-12-16T12:26:51.678Z,97422.91
2022-12-16T12:29:48.059Z,97419.41
2022-12-16T12:32:42.063Z,97427.59
2022-12-16T12:35:42.106Z,97426.34
2022-12-16T12:38:50.155Z,97419.38
2022-12-16T12:41:47.225Z,97438.47
2022-12-16T12:44:51.751Z,97428.66
2022-12-16T12:47:38.153Z,97441.31
2022-12-16T12:50:48.612Z,97429.97
2022-12-16T12:53:50.616Z,97433.13
2022-12-16T12:56:45.120Z,97447.47
2022-12-16T12:59:43.665Z,97435.59
2022-12-16T13:02:36.584Z,97438.41
2022-12-16T13:05:24.777Z,97450.06
2022-12-16T13:08:10.334Z,97438.72
2022-12-16T13:10:56.589Z,97443.16
2022-12-16T13:13:53.096Z,97439.22
2022-12-16T13:17:03.189Z,97454.22
2022-12-16T13:19:51.802Z,97453.75
2022-12-16T13:22:56.247Z,97450.44
2022-12-16T13:26:08.477Z,97455.88
2022-12-16T13:28:57.116Z,97456.00
2022-12-16T13:31:43.971Z,97456.84
2022-12-16T13:34:34.886Z,97456.03
2022-12-16T13:37:28.260Z,97455.22
2022-12-16T13:40:23.492Z,97460.47
2022-12-16T13:43:13.919Z,97464.66
2022-12-16T13:46:22.690Z,97465.78
2022-12-16T13:49:08.801Z,97473.13
2022-12-16T13:51:57.780Z,97472.84
2022-12-16T13:55:03.468Z,97481.59
2022-12-16T13:58:11.325Z,97475.50
2022-12-16T14:00:59.539Z,97473.00
2022-12-16T14:04:07.167Z,97476.66
2022-12-16T14:06:53.638Z,97485.72
2022-12-16T14:09:56.329Z,97490.34
2022-12-16T14:13:07.329Z,97493.94
2022-12-16T14:16:07.737Z,97496.59
2022-12-16T14:19:20.564Z,97506.00
2022-12-16T14:22:15.812Z,97509.28
2022-12-16T14:25:01.260Z,97516.03
2022-12-16T14:27:46.618Z,97520.34
2022-12-16T14:30:45.200Z,97520.13
2022-12-16T14:33:35.533Z,97514.38
2022-12-16T14:36:21.075Z,97513.19
2022-12-16T14:39:08.191Z,97520.59
2022-12-16T14:41:53.335Z,97525.06
2022-12-16T14:44:43.637Z,97529.81
2022-12-16T14:47:38.565Z,97527.47
2022-12-16T14:50:38.788Z,97533.72
2022-12-16T14:53:32.695Z,97543.56
2022-12-16T14:56:36.041Z,97542.88
2022-12-16T14:59:34.602Z,97541.53
2022-12-16T15:02:58.345Z,97559.41
2022-12-16T15:05:50.830Z,97547.91
2022-12-16T15:08:39.576Z,97555.44
2022-12-16T15:11:31.112Z,97554.41
2022-12-16T15:14:20.664Z,97554.59
2022-12-16T15:17:24.699Z,97572.19
2022-12-16T15:20:11.951Z,97575.53
2022-12-16T15:23:06.389Z,97582.81
2022-12-16T15:25:52.008Z,97580.22
2022-12-16T15:28:55.721Z,97576.84
2022-12-16T15:32:03.517Z,97600.00
2022-12-16T15:34:51.832Z,97603.28
2022-12-16T15:37:48.942Z,97592.44
2022-12-16T15:40:52.313Z,97606.84
2022-12-16T15:43:57.869Z,97609.13
2022-12-16T15:46:48.951Z,97623.22
2022-12-16T15:50:04.532Z,97628.03
2022-12-16T15:52:54.219Z,97639.63
2022-12-16T15:56:10.532Z,97641.50
2022-12-16T15:58:56.246Z,97640.84
2022-12-16T16:01:43.738Z,97654.81
2022-12-16T16:04:43.901Z,97661.94
2022-12-16T16:07:35.449Z,97664.38
2022-12-16T16:10:36.084Z,97673.66
2022-12-16T16:13:21.855Z,97686.19
2022-12-16T16:16:07.683Z,97682.06
2022-12-16T16:18:53.637Z,97697.78
2022-12-16T16:21:39.409Z,97692.91
2022-12-16T16:24:25.114Z,97696.03
2022-12-16T16:27:12.476Z,97698.25
2022-12-16T16:29:57.994Z,97703.03
2022-12-16T16:32:42.959Z,97708.50
2022-12-16T16:35:28.144Z,97711.72
2022-12-16T16:38:16.757Z,97712.72
2022-12-16T16:43:52.139Z,97720.25
2022-12-16T16:46:40.108Z,97727.75
2022-12-16T16:49:32.616Z,97727.72
2022-12-16T16:52:17.565Z,97723.63
2022-12-16T16:55:02.483Z,97733.34
2022-12-16T16:57:51.692Z,97740.78
2022-12-16T17:00:36.987Z,97743.56
2022-12-16T17:03:22.689Z,97751.09
2022-12-16T17:06:08.230Z,97748.47
2022-12-16T17:08:53.428Z,97752.25
2022-12-16T17:11:40.945Z,97760.22
2022-12-16T17:14:31.517Z,97762.34
2022-12-16T17:17:16.700Z,97764.00
2022-12-16T17:20:01.873Z,97758.69
2022-12-16T17:22:47.379Z,97764.50
2022-12-16T17:25:33.045Z,97754.19
2022-12-16T17:28:42.259Z,97763.44
2022-12-16T17:31:31.100Z,97769.63
2022-12-16T17:34:16.444Z,97768.72
2022-12-16T17:37:01.756Z,97785.34
2022-12-16T17:39:46.912Z,97783.88
2022-12-16T17:42:32.256Z,97785.56
2022-12-16T17:45:17.411Z,97786.50
2022-12-16T17:48:02.296Z,97793.78
2022-12-16T17:50:47.104Z,97802.53
2022-12-16T17:53:32.279Z,97788.72
2022-12-16T17:56:22.719Z,97819.53
2022-12-16T17:59:09.815Z,97816.59
2022-12-16T18:01:56.131Z,97820.53
2022-12-16T18:04:41.186Z,97815.59
2022-12-16T18:07:26.331Z,97791.31
2022-12-16T18:10:11.284Z,97823.75
2022-12-16T18:12:56.694Z,97816.63
2022-12-16T18:15:42.118Z,97827.41
2022-12-16T18:18:27.254Z,97828.72
2022-12-16T18:21:12.301Z,97833.69
2022-12-16T18:23:57.631Z,97852.16
2022-12-16T18:26:42.756Z,97846.91
2022-12-16T18:29:27.980Z,97854.84
2022-12-16T18:32:12.975Z,97863.06
2022-12-16T18:34:58.048Z,97862.66
2022-12-16T18:37:43.835Z,97875.25
2022-12-16T18:40:30.427Z,97873.38
2022-12-16T18:43:15.633Z,97876.16
2022-12-16T18:46:01.539Z,97882.22
2022-12-16T18:48:46.617Z,97882.22
2022-12-16T18:51:31.944Z,97893.34
2022-12-16T18:54:16.907Z,97893.13
2022-12-16T18:57:02.011Z,97882.78
2022-12-16T18:59:46.830Z,97897.59
2022-12-16T19:02:32.148Z,97888.97
2022-12-16T19:05:17.440Z,97890.81
2022-12-16T19:08:02.407Z,97895.38
2022-12-16T19:10:49.346Z,97901.53
2022-12-16T19:13:34.705Z,97901.00
2022-12-16T19:16:22.860Z,97901.41
2022-12-16T19:19:07.929Z,97918.78
2022-12-16T19:21:56.369Z,97921.50
2022-12-16T19:24:43.165Z,97915.97
2022-12-16T19:27:28.653Z,97932.97
2022-12-16T19:30:13.879Z,97936.13
2022-12-16T19:32:59.791Z,97934.91
2022-12-16T19:35:45.230Z,97939.50
2022-12-16T19:38:32.157Z,97949.69
2022-12-16T19:41:17.118Z,97944.06
2022-12-16T19:44:06.122Z,97949.25
2022-12-16T19:47:10.601Z,97947.28
2022-12-16T19:49:56.134Z,97951.25
2022-12-16T19:59:31.804Z,97965.66
2022-12-16T20:02:17.216Z,97973.38
2022-12-16T20:05:02.747Z,97969.59
2022-12-16T20:07:47.964Z,97975.44
2022-12-16T20:10:33.747Z,97978.31
2022-12-16T20:13:36.598Z,97972.78
2022-12-16T20:16:30.457Z,97965.97
2022-12-16T20:19:16.270Z,97970.63
2022-12-16T20:22:07.069Z,97980.38
2022-12-16T20:24:56.233Z,97977.47
2022-12-16T20:27:41.845Z,97988.63
2022-12-16T20:30:27.582Z,97987.53
2022-12-16T20:33:13.970Z,97978.03
2022-12-16T20:36:01.589Z,97981.22
2022-12-16T20:38:47.394Z,98000.22
2022-12-16T20:41:44.184Z,97998.91
2022-12-16T20:44:29.113Z,97994.66
2022-12-16T20:47:14.253Z,98008.38
2022-12-16T20:50:01.867Z,98006.72
2022-12-16T20:52:47.051Z,98003.47
2022-12-16T20:55:33.887Z,98014.22
2022-12-16T20:58:20.821Z,98024.53
2022-12-16T21:01:10.499Z,98020.44
2022-12-16T21:07:01.848Z,98034.44
2022-12-16T21:09:47.291Z,98041.47
2022-12-16T21:12:32.275Z,98040.19
2022-12-16T21:15:17.705Z,98045.78
2022-12-16T21:18:02.727Z,98030.63
2022-12-16T21:20:47.629Z,98040.09
2022-12-16T21:23:32.452Z,98063.38
2022-12-16T21:26:20.880Z,98049.88
2022-12-16T21:29:09.549Z,98047.81
2022-12-16T21:31:54.375Z,98070.66
2022-12-16T21:34:42.016Z,98067.97
2022-12-16T21:37:27.252Z,98052.13
2022-12-16T21:40:12.125Z,98060.41
2022-12-16T21:42:57.265Z,98070.78
2022-12-16T21:45:42.152Z,98065.50
2022-12-16T21:48:30.526Z,98066.66
2022-12-16T21:51:15.877Z,98063.16
2022-12-16T21:54:06.391Z,98083.38
2022-12-16T21:56:52.977Z,98081.38
2022-12-16T21:59:41.529Z,98088.59
2022-12-16T22:02:32.879Z,98089.13
2022-12-16T22:05:18.411Z,98090.88
2022-12-16T22:08:04.044Z,98099.84
2022-12-16T22:10:50.640Z,98114.59
2022-12-16T22:13:40.771Z,98102.63
2022-12-16T22:16:31.521Z,98110.41
2022-12-16T22:19:18.706Z,98106.03
2022-12-16T22:22:06.232Z,98112.16
2022-12-16T22:24:51.531Z,98110.50
2022-12-16T22:27:43.661Z,98115.59
2022-12-16T22:30:31.618Z,98108.13
2022-12-16T22:33:16.509Z,98127.31
2022-12-16T22:36:01.591Z,98117.59
2022-12-16T22:38:50.866Z,98128.91
2022-12-16T22:41:53.107Z,98130.44
2022-12-16T22:44:38.937Z,98133.03
2022-12-16T22:47:24.634Z,98140.53
2022-12-16T22:50:09.862Z,98132.09
2022-12-16T22:52:55.192Z,98127.31
2022-12-16T22:55:40.725Z,98128.72
2022-12-16T22:58:27.741Z,98139.22
2022-12-16T23:01:12.890Z,98137.34
2022-12-16T23:04:02.017Z,98133.47
2022-12-16T23:06:47.342Z,98136.75
2022-12-16T23:09:32.492Z,98150.72
2022-12-16T23:12:17.719Z,98152.88
2022-12-16T23:15:02.575Z,98150.69
2022-12-16T23:17:47.720Z,98154.22
2022-12-16T23:20:33.324Z,98157.72
2022-12-16T23:23:21.470Z,98152.84
2022-12-16T23:26:23.041Z,98158.72
2022-12-16T23:29:32.414Z,98147.22
2022-12-16T23:32:17.593Z,98159.34
2022-12-16T23:32:30.479Z,98039.91
2022-12-16T23:35:02.897Z,98154.22
2022-12-16T23:37:48.284Z,98157.75
2022-12-16T23:40:33.036Z,98159.41
2022-12-16T23:43:21.070Z,98157.81
2022-12-16T23:46:05.879Z,98167.03
2022-12-16T23:48:50.762Z,98167.78
2022-12-16T23:51:37.179Z,98168.13
2022-12-16T23:54:22.461Z,98173.38
2022-12-16T23:57:07.426Z,98176.50
2022-12-16T23:59:52.351Z,98168.13
